Time;durP1;ratioP1;P1;durP2;ratioP2;P2;SDS_P1;SDS_P2;PMS_P1;PMS_P2;Temp;Humidity;BMP_temperature;BMP_pressure;BME280_temperature;BME280_humidity;BME280_pressure;Samples;Min_cycle;Max_cycle;Signal;HPM_P1;HPM_P2
2023/07/08 00:00:39;;;;;;;6.90;3.53;;;27.30;99.90;;;;;;4868647;29;20108;-51
2023/07/08 00:03:05;;;;;;;8.40;3.22;;;27.30;99.90;;;;;;4880788;29;20103;-51
2023/07/08 00:05:31;;;;;;;11.45;3.22;;;27.30;99.90;;;;;;4880662;29;20029;-50
2023/07/08 00:07:57;;;;;;;7.50;4.05;;;27.30;99.90;;;;;;4877354;29;20108;-50
2023/07/08 00:10:25;;;;;;;6.60;3.70;;;27.30;99.90;;;;;;4872383;29;20099;-51
2023/07/08 00:12:53;;;;;;;11.25;3.33;;;27.20;99.90;;;;;;4880153;29;20497;-51
2023/07/08 00:15:24;;;;;;;9.00;3.72;;;27.20;99.90;;;;;;4880837;29;20033;-51
2023/07/08 00:17:50;;;;;;;8.65;3.75;;;27.20;99.90;;;;;;4880480;29;20024;-51
2023/07/08 00:20:31;;;;;;;10.63;2.80;;;27.20;99.90;;;;;;4873314;29;20025;-51
2023/07/08 00:22:57;;;;;;;10.20;3.17;;;27.20;99.90;;;;;;4877277;29;20462;-51
2023/07/08 00:25:23;;;;;;;12.02;3.42;;;27.20;99.90;;;;;;4880507;29;20026;-51
2023/07/08 00:27:48;;;;;;;10.32;3.20;;;27.10;99.90;;;;;;4880471;29;20036;-50
2023/07/08 00:30:19;;;;;;;7.82;3.40;;;27.10;99.90;;;;;;4880589;29;20033;-51
2023/07/08 00:32:45;;;;;;;10.75;3.45;;;27.10;99.90;;;;;;4880418;29;20120;-51
2023/07/08 00:35:10;;;;;;;11.18;2.85;;;27.10;99.90;;;;;;4881040;29;20104;-50
2023/07/08 00:37:36;;;;;;;6.30;2.92;;;27.10;99.90;;;;;;4880264;29;20071;-50
2023/07/08 00:40:19;;;;;;;10.65;3.65;;;27.10;99.90;;;;;;4880272;29;20045;-51
2023/07/08 00:42:45;;;;;;;9.73;3.22;;;27.10;99.90;;;;;;4880483;29;20043;-51
2023/07/08 00:45:40;;;;;;;10.60;2.97;;;27.10;99.90;;;;;;4880579;29;20386;-51
2023/07/08 00:48:28;;;;;;;9.65;3.20;;;27.00;99.90;;;;;;4862858;29;20028;-50
2023/07/08 00:50:54;;;;;;;9.43;3.60;;;27.00;99.90;;;;;;4880077;29;20034;-50
2023/07/08 00:53:25;;;;;;;12.30;3.67;;;27.00;99.90;;;;;;4880156;29;20029;-50
2023/07/08 00:55:59;;;;;;;10.30;3.20;;;27.00;99.90;;;;;;4879922;29;20471;-50
2023/07/08 00:58:35;;;;;;;9.18;3.58;;;27.00;99.90;;;;;;4854244;29;20029;-50
2023/07/08 01:01:03;;;;;;;14.40;3.88;;;27.00;99.90;;;;;;4879995;29;20108;-51
2023/07/08 01:03:29;;;;;;;10.75;3.33;;;27.00;99.90;;;;;;4873113;29;20052;-50
2023/07/08 01:05:59;;;;;;;11.45;2.80;;;27.00;99.90;;;;;;4873239;29;20047;-51
2023/07/08 01:08:30;;;;;;;9.43;3.10;;;27.00;99.90;;;;;;4879832;29;20052;-50
2023/07/08 01:11:01;;;;;;;9.75;3.10;;;26.90;99.90;;;;;;4879517;29;20025;-51
2023/07/08 01:13:33;;;;;;;10.98;3.47;;;27.00;99.90;;;;;;4871636;29;20052;-51
2023/07/08 01:15:59;;;;;;;8.45;3.10;;;27.00;99.90;;;;;;4876151;29;20025;-51
2023/07/08 01:18:25;;;;;;;10.05;3.60;;;26.90;99.90;;;;;;4879756;29;20044;-51
2023/07/08 01:20:55;;;;;;;12.45;3.78;;;27.00;99.90;;;;;;4879407;29;20496;-50
2023/07/08 01:23:21;;;;;;;9.23;3.78;;;26.90;99.90;;;;;;4879687;29;20029;-51
2023/07/08 01:25:47;;;;;;;10.30;3.08;;;27.00;99.90;;;;;;4879480;29;20529;-50
2023/07/08 01:28:14;;;;;;;9.70;3.83;;;26.90;99.90;;;;;;4879819;29;20017;-51
2023/07/08 01:30:42;;;;;;;10.20;3.67;;;26.90;99.90;;;;;;4878743;29;20032;-51
2023/07/08 01:33:16;;;;;;;12.23;3.50;;;27.00;99.90;;;;;;4873265;29;20085;-50
2023/07/08 01:35:42;;;;;;;7.00;3.10;;;27.00;99.90;;;;;;4873729;29;20112;-51
2023/07/08 01:38:12;;;;;;;8.77;4.43;;;27.00;99.90;;;;;;4873504;29;20108;-51
2023/07/08 01:40:47;;;;;;;11.25;3.95;;;27.00;99.90;;;;;;4872901;29;20083;-51
2023/07/08 01:43:13;;;;;;;11.93;3.95;;;27.00;99.90;;;;;;4857049;29;20529;-51
2023/07/08 01:45:41;;;;;;;10.50;4.45;;;27.00;99.90;;;;;;4879123;29;20116;-51
2023/07/08 01:48:12;;;;;;;10.57;4.03;;;27.00;99.90;;;;;;4878889;29;20529;-51
2023/07/08 01:51:00;;;;;;;8.45;4.18;;;27.00;99.90;;;;;;4879117;29;20474;-50
2023/07/08 01:53:37;;;;;;;8.75;4.15;;;27.00;99.90;;;;;;4855677;29;20468;-50
2023/07/08 01:56:04;;;;;;;11.77;4.10;;;27.00;99.90;;;;;;4878946;29;20021;-51
2023/07/08 01:58:30;;;;;;;15.80;4.63;;;27.00;99.90;;;;;;4879110;29;20525;-50
2023/07/08 02:00:56;;;;;;;8.27;4.30;;;27.00;99.90;;;;;;4879289;29;20068;-51
2023/07/08 02:03:23;;;;;;;19.95;6.75;;;27.00;99.90;;;;;;4878509;29;20052;-51
2023/07/08 02:05:48;;;;;;;11.57;5.40;;;27.00;99.90;;;;;;4878754;29;20017;-51
2023/07/08 02:08:14;;;;;;;6.78;3.92;;;27.00;99.90;;;;;;4878864;29;20360;-51
2023/07/08 02:10:42;;;;;;;17.73;8.02;;;27.00;99.90;;;;;;4878601;29;20104;-50
2023/07/08 02:13:07;;;;;;;10.57;4.35;;;27.00;99.90;;;;;;4866199;29;20044;-58
2023/07/08 02:15:34;;;;;;;9.48;4.40;;;27.00;99.90;;;;;;4878508;29;20033;-51
2023/07/08 02:18:00;;;;;;;9.43;3.90;;;27.00;99.90;;;;;;4878393;29;20151;-50
2023/07/08 02:20:26;;;;;;;9.90;4.03;;;27.00;99.90;;;;;;4878497;29;20033;-51
2023/07/08 02:22:52;;;;;;;10.30;4.38;;;27.00;99.90;;;;;;4877968;29;20549;-51
2023/07/08 02:25:17;;;;;;;14.75;4.25;;;27.00;99.90;;;;;;4866744;29;20062;-50
2023/07/08 02:27:43;;;;;;;9.57;3.85;;;26.90;99.90;;;;;;4878357;29;20526;-51
2023/07/08 02:30:09;;;;;;;11.63;3.80;;;27.00;99.90;;;;;;4878484;29;20029;-51
2023/07/08 02:32:38;;;;;;;7.70;3.65;;;27.00;99.90;;;;;;4878622;29;20033;-51
2023/07/08 02:35:05;;;;;;;7.10;4.38;;;27.00;99.90;;;;;;4878533;29;20111;-51
2023/07/08 02:37:32;;;;;;;13.43;4.80;;;26.90;99.90;;;;;;4878299;29;20044;-50
2023/07/08 02:39:57;;;;;;;9.45;3.58;;;27.00;99.90;;;;;;4878009;29;20389;-51
2023/07/08 02:42:23;;;;;;;11.95;3.47;;;26.90;99.90;;;;;;4878019;29;20180;-51
2023/07/08 02:44:49;;;;;;;13.20;4.57;;;26.90;99.90;;;;;;4878092;29;20435;-51
2023/07/08 02:47:15;;;;;;;10.93;4.45;;;26.90;99.90;;;;;;4878265;29;20021;-50
2023/07/08 02:49:41;;;;;;;9.02;3.65;;;26.90;99.90;;;;;;4878057;29;20385;-51
2023/07/08 02:52:06;;;;;;;9.13;3.88;;;26.90;99.90;;;;;;4878157;29;20390;-51
2023/07/08 02:54:32;;;;;;;9.57;4.07;;;26.90;99.90;;;;;;4877717;29;20126;-51
2023/07/08 02:56:58;;;;;;;15.55;4.22;;;26.90;99.90;;;;;;4878157;29;20044;-51
2023/07/08 02:59:24;;;;;;;10.20;4.10;;;26.90;99.90;;;;;;4877747;29;20029;-50
2023/07/08 03:01:50;;;;;;;11.02;4.53;;;26.90;99.90;;;;;;4868594;23;20053;-44
2023/07/08 03:04:16;;;;;;;9.38;4.35;;;26.90;99.90;;;;;;4878181;29;20478;-44
2023/07/08 03:06:43;;;;;;;10.13;3.95;;;26.90;99.90;;;;;;4877869;29;20029;-44
2023/07/08 03:09:11;;;;;;;13.70;6.03;;;26.90;99.90;;;;;;4878130;29;20479;-44
2023/07/08 03:11:38;;;;;;;7.82;4.60;;;26.90;99.90;;;;;;4878336;29;20495;-44
2023/07/08 03:14:05;;;;;;;11.48;4.57;;;26.90;99.90;;;;;;4877620;29;20047;-44
2023/07/08 03:16:30;;;;;;;10.57;4.57;;;26.90;99.90;;;;;;4878073;29;20033;-44
2023/07/08 03:18:57;;;;;;;12.18;5.00;;;26.90;99.90;;;;;;4861247;29;20029;-43
2023/07/08 03:21:22;;;;;;;9.40;4.25;;;26.80;99.90;;;;;;4877827;29;20115;-44
2023/07/08 03:23:50;;;;;;;11.32;6.10;;;26.90;99.90;;;;;;4877717;29;20061;-45
2023/07/08 03:26:25;;;;;;;11.45;4.78;;;26.90;99.90;;;;;;4877775;29;20021;-45
2023/07/08 03:28:51;;;;;;;9.18;5.47;;;26.90;99.90;;;;;;4877778;29;20490;-44
2023/07/08 03:31:17;;;;;;;12.68;4.32;;;26.80;99.90;;;;;;4874184;29;20022;-44
2023/07/08 03:33:43;;;;;;;12.98;5.47;;;26.80;99.90;;;;;;4868760;29;20043;-45
2023/07/08 03:36:23;;;;;;;12.45;4.80;;;26.80;99.90;;;;;;4877696;29;20017;-45
2023/07/08 03:38:55;;;;;;;13.38;5.00;;;26.80;99.90;;;;;;4877881;29;20450;-45
2023/07/08 03:41:21;;;;;;;7.18;3.80;;;26.70;99.90;;;;;;4877515;29;20062;-45
2023/07/08 03:43:47;;;;;;;9.93;4.20;;;26.70;99.90;;;;;;4877863;29;20036;-45
2023/07/08 03:46:14;;;;;;;8.38;4.25;;;26.70;99.90;;;;;;4877563;29;20025;-45
2023/07/08 03:48:41;;;;;;;9.77;4.38;;;26.70;99.90;;;;;;4878131;29;20488;-46
2023/07/08 03:51:27;;;;;;;12.48;4.60;;;26.70;99.90;;;;;;4877701;29;20373;-46
2023/07/08 03:53:52;;;;;;;17.92;5.68;;;26.70;99.90;;;;;;4877603;29;20572;-43
2023/07/08 03:56:18;;;;;;;15.20;5.35;;;26.70;99.90;;;;;;4863548;29;20116;-43
2023/07/08 03:58:44;;;;;;;15.70;4.63;;;26.70;99.90;;;;;;4881150;29;20561;-45
2023/07/08 04:01:21;;;;;;;12.18;5.97;;;26.70;99.90;;;;;;4881350;29;20103;-44
2023/07/08 04:03:47;;;;;;;21.85;4.68;;;26.70;99.90;;;;;;4881100;29;20040;-45
2023/07/08 04:06:14;;;;;;;9.68;4.00;;;26.70;99.90;;;;;;4877768;29;20364;-44
2023/07/08 04:08:40;;;;;;;15.82;5.20;;;26.70;99.90;;;;;;4872656;29;20363;-45
2023/07/08 04:11:06;;;;;;;11.45;6.00;;;26.60;99.90;;;;;;4880721;29;20032;-44
2023/07/08 04:13:32;;;;;;;14.65;4.63;;;26.60;99.90;;;;;;4880950;29;20040;-44
2023/07/08 04:16:04;;;;;;;14.25;4.50;;;26.60;99.90;;;;;;4880752;29;20115;-44
2023/07/08 04:18:29;;;;;;;14.23;4.80;;;26.60;99.90;;;;;;4880825;29;20053;-44
2023/07/08 04:20:55;;;;;;;10.52;4.30;;;26.60;99.90;;;;;;4880519;29;20505;-44
2023/07/08 04:23:24;;;;;;;15.75;4.28;;;26.60;99.90;;;;;;4880862;29;20017;-44
2023/07/08 04:25:55;;;;;;;7.25;3.78;;;26.50;99.90;;;;;;4863716;29;20049;-44
2023/07/08 04:28:21;;;;;;;12.10;4.65;;;26.40;99.90;;;;;;4880852;29;20021;-44
2023/07/08 04:30:47;;;;;;;10.65;4.35;;;26.40;99.90;;;;;;4880678;29;20492;-44
2023/07/08 04:33:15;;;;;;;10.95;4.28;;;26.40;99.90;;;;;;4880567;29;20378;-43
2023/07/08 04:35:42;;;;;;;13.13;4.50;;;26.30;99.90;;;;;;4880733;29;20155;-44
2023/07/08 04:38:17;;;;;;;9.75;4.78;;;26.30;99.90;;;;;;4880381;29;20025;-44
2023/07/08 04:40:45;;;;;;;12.38;4.72;;;26.30;99.90;;;;;;4880839;29;20039;-44
2023/07/08 04:43:11;;;;;;;13.75;4.32;;;26.20;99.90;;;;;;4855716;29;20029;-44
2023/07/08 04:45:39;;;;;;;14.32;4.53;;;26.20;99.90;;;;;;4868639;29;20034;-44
2023/07/08 04:48:08;;;;;;;12.35;4.13;;;26.20;99.90;;;;;;4879774;29;20090;-44
2023/07/08 04:50:35;;;;;;;11.98;4.65;;;26.20;99.90;;;;;;4880350;29;20029;-45
2023/07/08 04:53:02;;;;;;;15.20;4.80;;;26.10;99.90;;;;;;4867836;29;20090;-44
2023/07/08 04:55:27;;;;;;;12.50;5.38;;;26.20;99.90;;;;;;4880317;29;20573;-44
2023/07/08 04:57:53;;;;;;;9.38;3.97;;;26.20;99.90;;;;;;4876657;29;20026;-44
2023/07/08 05:00:19;;;;;;;20.65;5.88;;;26.20;99.90;;;;;;4871177;29;20097;-44
2023/07/08 05:02:45;;;;;;;16.80;4.90;;;26.20;99.90;;;;;;4879853;29;20060;-44
2023/07/08 05:05:11;;;;;;;11.93;4.40;;;26.20;99.90;;;;;;4880331;29;20550;-44
2023/07/08 05:07:37;;;;;;;14.65;4.57;;;26.10;99.90;;;;;;4879644;29;20037;-44
2023/07/08 05:10:03;;;;;;;12.55;5.03;;;26.10;99.90;;;;;;4879869;29;20402;-44
2023/07/08 05:12:28;;;;;;;15.45;5.20;;;26.10;99.90;;;;;;4879464;29;20025;-44
2023/07/08 05:14:54;;;;;;;14.38;5.25;;;26.00;99.90;;;;;;4879505;29;20041;-44
2023/07/08 05:17:20;;;;;;;17.02;5.75;;;26.00;99.90;;;;;;4879836;29;20025;-44
2023/07/08 05:19:49;;;;;;;19.73;5.40;;;25.90;99.90;;;;;;4879780;29;20620;-44
2023/07/08 05:22:15;;;;;;;20.40;4.90;;;25.80;99.90;;;;;;4879637;29;20028;-43
2023/07/08 05:24:41;;;;;;;13.65;4.93;;;25.80;99.90;;;;;;4847335;29;20029;-43
2023/07/08 05:27:06;;;;;;;14.27;5.05;;;25.80;99.90;;;;;;4871669;29;20386;-44
2023/07/08 05:29:32;;;;;;;21.38;5.10;;;25.70;99.90;;;;;;4862591;29;20040;-44
2023/07/08 05:31:58;;;;;;;15.50;5.50;;;25.80;99.90;;;;;;4870092;29;20026;-44
2023/07/08 05:34:24;;;;;;;12.00;4.75;;;25.80;99.90;;;;;;4876217;29;20037;-44
2023/07/08 05:36:49;;;;;;;16.38;4.57;;;25.70;99.90;;;;;;4862742;29;20077;-44
2023/07/08 05:39:15;;;;;;;16.35;4.93;;;25.70;99.90;;;;;;4867245;29;20037;-44
2023/07/08 05:41:41;;;;;;;16.52;4.50;;;25.70;99.90;;;;;;4878901;29;20084;-44
2023/07/08 05:44:07;;;;;;;14.45;5.35;;;25.60;99.90;;;;;;4862680;29;20089;-44
2023/07/08 05:46:32;;;;;;;17.88;5.03;;;25.60;99.90;;;;;;4861917;29;20029;-44
2023/07/08 05:48:58;;;;;;;13.52;4.60;;;25.60;99.90;;;;;;4879212;29;20032;-44
2023/07/08 05:51:24;;;;;;;11.18;4.28;;;25.70;99.90;;;;;;4877507;29;20037;-44
2023/07/08 05:53:49;;;;;;;13.93;4.55;;;25.70;99.90;;;;;;4878042;29;20036;-45
2023/07/08 05:56:15;;;;;;;14.45;4.60;;;25.70;99.90;;;;;;4879111;29;20057;-44
2023/07/08 05:58:41;;;;;;;15.15;4.95;;;25.70;99.90;;;;;;4878355;29;20064;-46
2023/07/08 06:01:07;;;;;;;14.40;5.07;;;25.70;99.90;;;;;;4878346;29;20041;-46
2023/07/08 06:03:32;;;;;;;18.73;4.63;;;25.70;99.90;;;;;;4879115;29;20060;-47
2023/07/08 06:05:58;;;;;;;11.70;5.00;;;25.70;99.90;;;;;;4877785;29;20036;-47
2023/07/08 06:08:24;;;;;;;15.85;4.90;;;25.70;99.90;;;;;;4878683;29;20025;-46
2023/07/08 06:10:51;;;;;;;11.57;3.42;;;25.70;99.90;;;;;;4878588;29;20123;-46
2023/07/08 06:13:16;;;;;;;6.47;2.77;;;25.60;99.90;;;;;;4862361;29;20025;-47
2023/07/08 06:15:42;;;;;;;13.23;2.95;;;25.50;99.90;;;;;;4878042;29;20267;-47
2023/07/08 06:18:09;;;;;;;14.15;4.10;;;25.50;99.90;;;;;;4878039;29;20077;-47
2023/07/08 06:20:35;;;;;;;9.30;3.00;;;25.50;99.90;;;;;;4861878;29;20406;-47
2023/07/08 06:23:00;;;;;;;10.35;3.47;;;25.60;99.90;;;;;;4878354;29;20203;-46
2023/07/08 06:25:28;;;;;;;9.38;2.85;;;25.60;99.90;;;;;;4861542;29;20119;-47
2023/07/08 06:27:53;;;;;;;7.50;2.70;;;25.70;99.90;;;;;;4878424;29;20363;-46
2023/07/08 06:30:19;;;;;;;8.65;2.78;;;25.70;99.90;;;;;;4878903;29;20095;-47
2023/07/08 06:32:45;;;;;;;9.73;2.40;;;25.80;99.90;;;;;;4861601;29;20026;-46
2023/07/08 06:35:11;;;;;;;7.35;2.80;;;25.90;99.90;;;;;;4878338;29;20085;-47
2023/07/08 06:37:36;;;;;;;6.88;2.75;;;26.00;99.90;;;;;;4861595;29;20070;-46
2023/07/08 06:40:03;;;;;;;8.77;3.25;;;26.00;99.90;;;;;;4878445;29;20025;-46
2023/07/08 06:42:29;;;;;;;7.85;2.83;;;26.10;99.90;;;;;;4877924;29;20025;-47
2023/07/08 06:44:55;;;;;;;5.72;2.50;;;26.20;99.90;;;;;;4878132;29;20120;-46
2023/07/08 06:47:22;;;;;;;9.93;3.05;;;26.30;99.90;;;;;;4878245;29;20103;-46
2023/07/08 06:49:48;;;;;;;8.88;3.70;;;26.30;99.90;;;;;;4878429;29;20029;-45
2023/07/08 06:52:14;;;;;;;14.25;3.30;;;26.40;99.90;;;;;;4861338;29;20029;-45
2023/07/08 06:54:40;;;;;;;13.20;4.10;;;26.50;99.90;;;;;;4877658;29;20039;-45
2023/07/08 06:57:06;;;;;;;12.02;5.25;;;26.60;99.90;;;;;;4878075;29;20064;-46
2023/07/08 06:59:32;;;;;;;13.05;6.97;;;26.60;99.90;;;;;;4877821;29;20078;-46
2023/07/08 07:01:58;;;;;;;7.25;4.10;;;26.70;99.90;;;;;;4877962;29;20495;-47
2023/07/08 07:04:24;;;;;;;8.35;3.88;;;26.70;99.90;;;;;;4876512;29;20109;-47
2023/07/08 07:06:49;;;;;;;7.47;3.58;;;26.70;99.90;;;;;;4851173;29;20076;-47
2023/07/08 07:09:15;;;;;;;8.50;3.70;;;26.80;99.90;;;;;;4877927;29;20120;-47
2023/07/08 07:11:41;;;;;;;11.90;5.85;;;26.70;99.90;;;;;;4871595;29;20026;-46
2023/07/08 07:14:07;;;;;;;9.20;4.47;;;26.80;99.90;;;;;;4871849;29;20044;-47
2023/07/08 07:16:33;;;;;;;8.60;3.72;;;26.80;99.90;;;;;;4877769;29;20021;-46
2023/07/08 07:18:58;;;;;;;7.95;3.55;;;26.90;99.90;;;;;;4866750;29;20117;-47
2023/07/08 07:21:24;;;;;;;18.63;10.63;;;26.90;99.90;;;;;;4876375;29;20025;-47
2023/07/08 07:23:50;;;;;;;10.43;4.38;;;26.90;99.90;;;;;;4878240;29;20041;-47
2023/07/08 07:26:16;;;;;;;11.82;3.75;;;26.90;99.90;;;;;;4861483;29;20021;-47
2023/07/08 07:28:41;;;;;;;11.18;4.40;;;27.00;99.90;;;;;;4878023;29;20021;-47
2023/07/08 07:31:07;;;;;;;8.00;3.15;;;27.00;99.90;;;;;;4880685;29;20021;-47
2023/07/08 07:33:34;;;;;;;10.05;2.90;;;27.00;99.90;;;;;;4864873;29;20089;-48
2023/07/08 07:36:00;;;;;;;7.75;3.50;;;27.00;99.90;;;;;;4881675;29;20032;-48
2023/07/08 07:38:28;;;;;;;10.25;3.47;;;27.10;99.90;;;;;;4882267;29;20029;-47
2023/07/08 07:40:55;;;;;;;10.35;3.55;;;27.20;99.90;;;;;;4881152;29;20021;-47
2023/07/08 07:43:22;;;;;;;10.07;3.72;;;27.30;99.90;;;;;;4881786;29;20025;-47
2023/07/08 07:45:52;;;;;;;17.08;6.07;;;27.30;99.90;;;;;;4864773;29;20041;-47
2023/07/08 07:48:19;;;;;;;9.07;3.60;;;27.30;99.90;;;;;;4864682;29;20025;-49
2023/07/08 07:50:46;;;;;;;9.27;3.60;;;27.40;99.90;;;;;;4881586;29;20424;-46
2023/07/08 07:53:12;;;;;;;11.48;3.22;;;27.50;99.90;;;;;;4881157;29;20051;-45
2023/07/08 07:55:38;;;;;;;10.43;4.45;;;27.40;99.90;;;;;;4881430;29;20506;-45
2023/07/08 07:58:04;;;;;;;12.90;4.95;;;27.50;99.90;;;;;;4849423;29;20033;-45
2023/07/08 08:00:30;;;;;;;12.32;5.13;;;27.60;99.90;;;;;;4881128;29;20029;-45
2023/07/08 08:02:56;;;;;;;11.75;4.65;;;27.60;99.90;;;;;;4881119;29;20032;-45
2023/07/08 08:05:23;;;;;;;15.35;3.72;;;27.60;99.90;;;;;;4868651;29;20063;-45
2023/07/08 08:07:48;;;;;;;15.38;4.70;;;27.70;99.90;;;;;;4880749;29;20390;-46
2023/07/08 08:10:14;;;;;;;8.68;4.10;;;27.70;99.90;;;;;;4881086;29;20041;-45
2023/07/08 08:12:41;;;;;;;11.18;4.25;;;27.70;99.90;;;;;;4880869;29;20040;-45
2023/07/08 08:15:07;;;;;;;16.75;4.10;;;27.70;99.90;;;;;;4881083;29;20444;-46
2023/07/08 08:17:33;;;;;;;16.65;3.75;;;27.70;99.90;;;;;;4880585;29;20025;-46
2023/07/08 08:19:58;;;;;;;7.65;3.55;;;27.70;99.90;;;;;;4881020;29;20474;-46
2023/07/08 08:22:24;;;;;;;8.02;3.55;;;27.70;99.90;;;;;;4880875;29;20049;-45
2023/07/08 08:24:50;;;;;;;14.85;4.75;;;27.80;99.90;;;;;;4880938;29;20029;-46
2023/07/08 08:27:16;;;;;;;8.07;3.67;;;27.80;99.90;;;;;;4880809;29;20123;-46
2023/07/08 08:29:42;;;;;;;11.98;3.00;;;27.80;99.90;;;;;;4880715;29;20021;-45
2023/07/08 08:32:07;;;;;;;13.77;3.78;;;27.80;99.90;;;;;;4880782;29;20025;-45
2023/07/08 08:34:33;;;;;;;15.75;4.80;;;27.90;99.90;;;;;;4880677;29;20141;-46
2023/07/08 08:36:59;;;;;;;10.15;3.47;;;27.90;99.90;;;;;;4863682;29;20025;-47
2023/07/08 08:39:29;;;;;;;9.23;3.65;;;27.90;99.90;;;;;;4876213;29;20030;-46
2023/07/08 08:41:56;;;;;;;9.45;3.83;;;27.90;99.90;;;;;;4873035;29;20044;-47
2023/07/08 08:44:33;;;;;;;7.15;3.38;;;28.00;99.90;;;;;;4880702;29;20029;-46
2023/07/08 08:47:19;;;;;;;;;;;28.00;99.90;;;;;;4881010;29;20386;-47
2023/07/08 08:49:51;;;;;;;10.32;3.53;;;28.00;99.90;;;;;;4859395;29;19908;-47
2023/07/08 08:52:16;;;;;;;13.15;6.53;;;28.10;99.90;;;;;;4863633;29;20032;-46
2023/07/08 08:54:43;;;;;;;13.55;5.93;;;28.10;99.90;;;;;;4880191;29;20036;-46
2023/07/08 08:57:24;;;;;;;10.47;4.07;;;28.10;99.90;;;;;;4863776;29;20389;-48
2023/07/08 08:59:53;;;;;;;9.75;4.25;;;28.10;99.90;;;;;;4855944;29;20382;-48
2023/07/08 09:03:13;;;;;;;11.60;5.45;;;28.10;99.90;;;;;;4875741;29;20049;-48
2023/07/08 09:05:38;;;;;;;9.40;4.22;;;28.20;99.90;;;;;;4804500;29;20504;-48
2023/07/08 09:08:10;;;;;;;11.55;3.60;;;28.20;99.90;;;;;;4864349;29;20069;-47
2023/07/08 09:10:43;;;;;;;6.95;3.83;;;28.20;99.90;;;;;;4880072;29;20563;-48
2023/07/08 09:13:19;;;;;;;9.63;3.20;;;28.30;99.90;;;;;;4879820;29;20043;-47
2023/07/08 09:15:45;;;;;;;9.50;3.58;;;28.30;99.90;;;;;;4879825;29;20471;-48
2023/07/08 09:18:19;;;;;;;8.32;3.55;;;28.30;99.90;;;;;;4874775;29;20497;-47
2023/07/08 09:20:47;;;;;;;16.38;5.15;;;28.30;99.90;;;;;;4873565;29;20040;-48
2023/07/08 09:23:27;;;;;;;10.38;3.88;;;28.40;99.90;;;;;;4879888;29;20025;-48
2023/07/08 09:26:01;;;;;;;15.85;4.03;;;28.40;99.90;;;;;;4867286;29;20029;-48
2023/07/08 09:28:42;;;;;;;9.45;3.45;;;28.40;99.90;;;;;;4879996;29;20025;-47
2023/07/08 09:31:20;;;;;;;15.27;3.92;;;28.50;99.90;;;;;;4860931;29;20025;-48
2023/07/08 09:33:46;;;;;;;9.88;4.07;;;28.50;99.90;;;;;;4871105;29;20060;-47
2023/07/08 09:36:22;;;;;;;11.52;3.58;;;28.50;99.90;;;;;;4879572;29;20075;-47
2023/07/08 09:38:49;;;;;;;10.57;3.75;;;28.60;99.90;;;;;;4879610;29;20457;-47
2023/07/08 09:41:37;;;;;;;5.40;3.50;;;28.60;99.90;;;;;;4862585;29;20490;-47
2023/07/08 09:44:16;;;;;;;7.68;2.97;;;28.60;99.90;;;;;;4879281;29;20061;-48
2023/07/08 09:46:42;;;;;;;13.43;3.13;;;28.60;99.90;;;;;;4855989;29;20017;-50
2023/07/08 09:49:18;;;;;;;9.15;3.38;;;28.70;99.90;;;;;;4878818;29;20117;-48
2023/07/08 09:51:45;;;;;;;12.77;3.50;;;28.70;99.90;;;;;;4872577;29;20481;-48
2023/07/08 09:54:11;;;;;;;11.80;4.25;;;28.70;99.90;;;;;;4872997;29;20557;-48
2023/07/08 09:56:42;;;;;;;11.93;6.97;;;28.80;99.90;;;;;;4879121;29;20025;-48
2023/07/08 09:59:14;;;;;;;11.23;4.70;;;28.70;99.90;;;;;;4879259;29;20485;-47
2023/07/08 10:01:41;;;;;;;12.40;4.13;;;28.80;99.90;;;;;;4879041;29;20529;-47
2023/07/08 10:04:07;;;;;;;8.82;4.72;;;28.80;99.90;;;;;;4862576;29;20500;-47
2023/07/08 10:06:35;;;;;;;7.63;3.35;;;28.80;99.90;;;;;;4878926;29;20108;-47
2023/07/08 10:09:05;;;;;;;10.05;4.05;;;28.80;99.90;;;;;;4879398;29;20162;-47
2023/07/08 10:11:35;;;;;;;14.27;4.53;;;28.70;99.90;;;;;;4879291;29;20545;-47
2023/07/08 10:14:09;;;;;;;8.10;3.20;;;28.70;99.90;;;;;;4879036;29;20037;-45
2023/07/08 10:16:35;;;;;;;13.93;4.82;;;28.70;99.90;;;;;;4878860;29;20052;-47
2023/07/08 10:19:08;;;;;;;10.40;3.95;;;28.70;99.90;;;;;;4879051;29;20105;-47
2023/07/08 10:21:52;;;;;;;9.80;4.00;;;28.60;99.90;;;;;;4878477;29;20021;-46
2023/07/08 10:24:39;;;;;;;11.93;3.50;;;28.60;99.90;;;;;;4878459;29;20029;-46
2023/07/08 10:27:45;;;;;;;9.23;6.18;;;28.60;99.90;;;;;;4878463;29;20041;-47
2023/07/08 10:30:16;;;;;;;8.25;3.28;;;28.60;99.90;;;;;;4841537;29;20029;-47
2023/07/08 10:32:54;;;;;;;9.88;3.70;;;28.60;99.90;;;;;;4878462;29;20100;-47
2023/07/08 10:35:39;;;;;;;8.25;3.45;;;28.60;99.90;;;;;;4878716;29;20041;-46
2023/07/08 10:38:29;;;;;;;6.20;2.78;;;28.50;99.90;;;;;;4878454;29;20115;-46
2023/07/08 10:41:11;;;;;;;7.90;2.72;;;28.50;99.90;;;;;;4878253;29;20104;-46
2023/07/08 10:44:03;;;;;;;7.55;2.83;;;28.60;99.90;;;;;;4878597;29;20028;-47
2023/07/08 10:46:41;;;;;;;9.52;3.08;;;28.60;99.90;;;;;;4878458;29;20033;-46
2023/07/08 10:49:40;;;;;;;6.20;2.78;;;28.60;99.90;;;;;;4878070;29;20423;-46
2023/07/08 10:52:35;;;;;;;10.07;3.28;;;28.60;99.90;;;;;;4837472;29;20461;-46
2023/07/08 10:55:10;;;;;;;11.05;3.10;;;28.70;99.90;;;;;;4878462;29;20052;-46
2023/07/08 10:57:47;;;;;;;9.30;2.78;;;28.70;99.90;;;;;;4877274;29;20044;-46
2023/07/08 11:00:57;;;;;;;7.15;3.92;;;28.70;99.90;;;;;;4868326;29;20029;-46
2023/07/08 11:03:37;;;;;;;7.80;3.33;;;28.80;99.90;;;;;;4802628;29;20381;-46
2023/07/08 11:06:13;;;;;;;12.75;7.65;;;28.80;99.90;;;;;;4787838;29;20027;-47
2023/07/08 11:08:59;;;;;;;12.25;8.25;;;28.80;99.90;;;;;;4853345;29;20037;-47
2023/07/08 11:11:42;;;;;;;10.20;6.15;;;28.80;99.90;;;;;;4877885;29;20064;-46
2023/07/08 11:14:23;;;;;;;9.60;5.30;;;28.90;99.90;;;;;;4878204;29;20493;-47
2023/07/08 11:17:04;;;;;;;13.07;6.20;;;28.80;99.90;;;;;;4878042;29;20124;-47
2023/07/08 11:19:46;;;;;;;5.22;3.80;;;29.00;99.90;;;;;;4875690;29;20394;-47
2023/07/08 11:22:14;;;;;;;15.82;13.30;;;29.00;99.90;;;;;;4870697;29;20029;-47
2023/07/08 11:24:47;;;;;;;8.10;5.32;;;29.00;99.90;;;;;;4861382;29;20547;-47
2023/07/08 11:27:35;;;;;;;20.63;14.45;;;29.00;99.90;;;;;;4878112;29;20033;-46
2023/07/08 11:30:15;;;;;;;15.50;9.30;;;29.00;99.90;;;;;;4878507;29;20021;-46
2023/07/08 11:32:45;;;;;;;16.08;9.20;;;29.10;99.90;;;;;;4876114;29;20021;-46
2023/07/08 11:35:23;;;;;;;9.88;3.55;;;29.10;99.90;;;;;;4842807;29;20071;-46
2023/07/08 11:37:49;;;;;;;10.85;4.60;;;29.10;99.90;;;;;;4875561;29;20029;-46
2023/07/08 11:40:22;;;;;;;12.75;5.10;;;29.10;99.90;;;;;;4878047;29;20025;-46
2023/07/08 11:42:54;;;;;;;8.05;4.18;;;29.10;99.90;;;;;;4861085;29;20157;-48
2023/07/08 11:45:35;;;;;;;6.47;3.28;;;29.20;99.90;;;;;;4878067;29;20026;-47
2023/07/08 11:48:05;;;;;;;8.02;3.80;;;29.20;99.90;;;;;;4865558;29;20500;-46
2023/07/08 11:50:37;;;;;;;10.23;5.15;;;29.20;99.90;;;;;;4877389;29;20033;-46
2023/07/08 11:53:14;;;;;;;11.65;3.10;;;29.20;99.90;;;;;;4851972;29;20026;-46
2023/07/08 11:55:56;;;;;;;15.45;8.65;;;29.30;99.90;;;;;;4877861;29;20040;-46
2023/07/08 11:58:29;;;;;;;8.13;3.65;;;29.30;99.90;;;;;;4877873;29;20029;-46
2023/07/08 12:01:14;;;;;;;11.30;7.25;;;29.30;99.90;;;;;;4865230;29;20195;-46
2023/07/08 12:03:49;;;;;;;12.35;7.32;;;29.40;99.90;;;;;;4877587;29;20029;-47
2023/07/08 12:06:27;;;;;;;8.23;3.30;;;29.40;99.90;;;;;;4877670;29;20112;-47
2023/07/08 12:09:14;;;;;;;12.77;3.88;;;29.40;99.90;;;;;;4877799;29;20033;-46
2023/07/08 12:11:43;;;;;;;;;;;29.40;99.90;;;;;;4853917;29;20027;-47
2023/07/08 12:14:09;;;;;;;9.55;4.05;;;29.40;99.90;;;;;;4860758;29;20010;-47
2023/07/08 12:16:35;;;;;;;15.20;4.05;;;29.50;99.90;;;;;;4862691;29;20056;-47
2023/07/08 12:19:04;;;;;;;12.20;4.30;;;29.50;99.90;;;;;;4881133;29;20029;-47
2023/07/08 12:21:34;;;;;;;13.95;3.33;;;29.50;99.90;;;;;;4876626;29;20060;-47
2023/07/08 12:24:04;;;;;;;9.32;3.67;;;29.60;99.90;;;;;;4873483;29;20033;-47
2023/07/08 12:26:31;;;;;;;18.33;8.98;;;29.60;99.90;;;;;;4880618;29;20149;-47
2023/07/08 12:28:57;;;;;;;6.68;3.95;;;29.60;99.90;;;;;;4880601;29;20386;-47
2023/07/08 12:31:24;;;;;;;10.20;3.90;;;29.60;99.90;;;;;;4880449;29;20440;-47
2023/07/08 12:33:50;;;;;;;9.13;3.17;;;29.70;99.90;;;;;;4880863;29;20040;-47
2023/07/08 12:36:29;;;;;;;7.70;3.37;;;29.70;99.90;;;;;;4880519;29;20052;-47
2023/07/08 12:39:00;;;;;;;5.22;3.03;;;29.70;99.90;;;;;;4880749;29;20029;-47
2023/07/08 12:41:31;;;;;;;7.20;2.78;;;29.70;99.90;;;;;;4880307;29;20055;-47
2023/07/08 12:43:58;;;;;;;8.75;3.28;;;29.70;99.90;;;;;;4863597;29;20040;-46
2023/07/08 12:46:25;;;;;;;11.15;4.50;;;29.70;99.90;;;;;;4880475;29;20017;-47
2023/07/08 12:48:51;;;;;;;;;;;29.70;99.90;;;;;;4880979;29;20029;-47
2023/07/08 12:51:23;;;;;;;6.60;3.40;;;29.80;99.90;;;;;;4878314;29;20360;-47
2023/07/08 12:53:50;;;;;;;7.68;3.10;;;29.80;99.90;;;;;;4870976;29;20516;-47